Debbie Lou — WDH8211 — position and weather

sailwx.info

Track history (hours):
 
Tides and Currents Weather Stations Pressure Air Temp Water Temp Dewpoint Dewpoint Depression Visibility Wind Speed Wind Dir Waves Ship Positions

Debbie Lou

Owner: Atwater Marine, St Petersburg, FL. More information available from US FCC via Universal Licensing System and Coast Guard Vessel Documentation Center.

Last reported at 2018-Jun-21 23:58 UTC. Time now 2018-Jun-22 00:02 UTC.
Position N 34°43' W 076°40'.

Length 32 m; draft 2 m.

Type: Pleasure craft. MMSI: 367655770.

Date/timePositionNaut miles runAvg speedWind from/ knotsBaromVisibWave heightAir tempDewpointWater temp
2018-Jun-21 23:58N 34°43' W 076°40'0 0.0
2018-Jun-21 23:28N 34°43' W 076°40'0 0.0
2018-Jun-21 22:58N 34°43' W 076°40'0 0.0
2018-Jun-21 22:28N 34°43' W 076°40'0 0.0
2018-Jun-21 21:58N 34°43' W 076°40'0 0.0
2018-Jun-21 21:28N 34°43' W 076°40'0 0.0
2018-Jun-21 20:58N 34°43' W 076°40'0 0.0
2018-Jun-21 20:28N 34°43' W 076°40'0 0.0
2018-Jun-21 19:58N 34°43' W 076°40'0 0.0
2018-Jun-21 19:28N 34°43' W 076°40'0 0.0
2018-Jun-21 18:58N 34°43' W 076°40'0 0.0
2018-Jun-21 18:28N 34°43' W 076°40'0 0.0
2018-Jun-21 17:58N 34°43' W 076°40'0 0.0
2018-Jun-21 17:28N 34°43' W 076°40'0 0.0
2018-Jun-21 16:58N 34°43' W 076°40'0 0.0
2018-Jun-21 16:28N 34°43' W 076°40'0 0.0
2018-Jun-21 15:58N 34°43' W 076°40'0 0.0
2018-Jun-21 15:28N 34°43' W 076°40'0 0.0
2018-Jun-21 14:58N 34°43' W 076°40'0 0.0
2018-Jun-21 14:28N 34°43' W 076°40'0 0.0
2018-Jun-21 13:58N 34°43' W 076°40'0 0.0
2018-Jun-21 13:28N 34°43' W 076°40'0 0.2
2018-Jun-21 12:59N 34°43' W 076°40'0 0.0
2018-Jun-21 12:29N 34°43' W 076°40'0 0.0
2018-Jun-21 11:59N 34°43' W 076°40'0 0.0
2018-Jun-21 11:29N 34°43' W 076°40'0 0.0
2018-Jun-21 10:59N 34°43' W 076°40'0 0.0
2018-Jun-21 10:30N 34°43' W 076°40'1 2.9
2018-Jun-21 10:00N 34°41' W 076°40'510.7
2018-Jun-21 09:30N 34°36' W 076°42'4 7.0
2018-Jun-21 09:00N 34°33' W 076°44'3 6.8
2018-Jun-21 08:30N 34°30' W 076°45'47812.4
2018-Jun-19 17:56N 27°00' W 079°54'615.0
2018-Jun-19 17:30N 26°55' W 079°57'2914.3
2018-Jun-19 15:28N 26°26' W 080°02'613.2
2018-Jun-19 15:00N 26°20' W 080°03'713.4
2018-Jun-19 14:29N 26°13' W 080°04'613.3
2018-Jun-19 14:00N 26°06' W 080°05'3 5.5
2018-Jun-19 13:30N 26°07' W 080°08'2 3.6
2018-Jun-19 13:01N 26°06' W 080°10'0 0.3
2018-Jun-19 12:23N 26°06' W 080°10'0 0.0
2018-Jun-19 11:59N 26°06' W 080°10'0 0.0
2018-Jun-19 11:26N 26°06' W 080°10'0 0.0
2018-Jun-19 10:56N 26°06' W 080°10'0 0.0
2018-Jun-19 10:29N 26°06' W 080°10'0 0.0
2018-Jun-19 09:59N 26°06' W 080°10'0 0.0
2018-Jun-19 09:29N 26°06' W 080°10'0 0.0
2018-Jun-19 08:59N 26°06' W 080°10'0 0.0
2018-Jun-19 08:29N 26°06' W 080°10'0 0.0
2018-Jun-19 07:59N 26°06' W 080°10'0 0.0
2018-Jun-19 07:26N 26°06' W 080°10'0 0.0
2018-Jun-19 06:59N 26°06' W 080°10'0 0.0
2018-Jun-19 06:26N 26°06' W 080°10'0 0.0
2018-Jun-19 05:59N 26°06' W 080°10'0 0.0
2018-Jun-19 05:29N 26°06' W 080°10'0 0.0
2018-Jun-19 04:47N 26°06' W 080°10'0 0.0
2018-Jun-19 04:20N 26°06' W 080°10'0 0.0
2018-Jun-19 03:47N 26°06' W 080°10'0 0.0
2018-Jun-19 03:29N 26°06' W 080°10'0 0.0
2018-Jun-19 02:50N 26°06' W 080°10'0 0.0
2018-Jun-19 02:23N 26°06' W 080°10'0 0.0
2018-Jun-19 01:50N 26°06' W 080°10'0 0.0
2018-Jun-19 01:23N 26°06' W 080°10'0 0.0
2018-Jun-19 00:53N 26°06' W 080°10'0 0.0
2018-Jun-19 00:23N 26°06' W 080°10'0 0.0
2018-Jun-18 23:53N 26°06' W 080°10'0 0.0
2018-Jun-18 23:23N 26°06' W 080°10'0 0.0
2018-Jun-18 22:53N 26°06' W 080°10'0 0.0
2018-Jun-18 22:26N 26°06' W 080°10'0 0.0
2018-Jun-18 21:56N 26°06' W 080°10'0 0.0
2018-Jun-18 21:23N 26°06' W 080°10'0 0.0
2018-Jun-18 20:56N 26°06' W 080°10'0 0.0
2018-Jun-18 20:26N 26°06' W 080°10'0 0.0
2018-Jun-18 19:59N 26°06' W 080°10'0 0.0
2018-Jun-18 19:29N 26°06' W 080°10'0 0.0
2018-Jun-18 18:59N 26°06' W 080°10'0 0.0
2018-Jun-18 18:29N 26°06' W 080°10'0 0.0
2018-Jun-18 17:59N 26°06' W 080°10'0 0.0
2018-Jun-18 17:26N 26°06' W 080°10'0 0.0
2018-Jun-18 16:59N 26°06' W 080°10'0 0.0
2018-Jun-18 16:29N 26°06' W 080°10'0 0.0
2018-Jun-18 15:59N 26°06' W 080°10'0 0.0
2018-Jun-18 15:29N 26°06' W 080°10'0 0.0
2018-Jun-18 14:59N 26°06' W 080°10'0 0.0
2018-Jun-18 14:29N 26°06' W 080°10'0 0.0
2018-Jun-18 13:59N 26°06' W 080°10'0 0.0
2018-Jun-18 13:17N 26°06' W 080°10'0 0.0
2018-Jun-18 12:59N 26°06' W 080°10'0 0.0
2018-Jun-18 12:29N 26°06' W 080°10'0 0.0
2018-Jun-18 11:50N 26°06' W 080°10'0 0.0
2018-Jun-18 11:20N 26°06' W 080°10'0 0.0
2018-Jun-18 10:53N 26°06' W 080°10'0 0.0
2018-Jun-18 10:23N 26°06' W 080°10'0 0.0
2018-Jun-18 09:53N 26°06' W 080°10'0 0.0
2018-Jun-18 09:23N 26°06' W 080°10'0 0.0
2018-Jun-18 08:52N 26°06' W 080°10'0 0.0
2018-Jun-18 08:26N 26°06' W 080°10'0 0.0
2018-Jun-18 07:53N 26°06' W 080°10'0 0.0
2018-Jun-18 07:26N 26°06' W 080°10'0 0.0
2018-Jun-18 06:56N 26°06' W 080°10'0 0.0
2018-Jun-18 06:26N 26°06' W 080°10'0 0.0
2018-Jun-18 05:56N 26°06' W 080°10'0 0.0
2018-Jun-18 05:26N 26°06' W 080°10'0 0.0
2018-Jun-18 04:59N 26°06' W 080°10'0 0.0
2018-Jun-18 04:29N 26°06' W 080°10'0 0.0
2018-Jun-18 03:59N 26°06' W 080°10'0 0.0
2018-Jun-18 03:28N 26°06' W 080°10'0 0.0
2018-Jun-18 02:58N 26°06' W 080°10'0 0.0
2018-Jun-18 02:29N 26°06' W 080°10'0 0.0
2018-Jun-18 01:58N 26°06' W 080°10'0 0.0
2018-Jun-18 01:28N 26°06' W 080°10'0 0.0
2018-Jun-18 00:59N 26°06' W 080°10'0 0.0
2018-Jun-18 00:29N 26°06' W 080°10'0 0.0
2018-Jun-17 23:58N 26°06' W 080°10'0 0.0
2018-Jun-17 23:29N 26°06' W 080°10'0 0.0
2018-Jun-17 22:58N 26°06' W 080°10'0 0.0
2018-Jun-17 22:28N 26°06' W 080°10'0 0.0
2018-Jun-17 21:58N 26°06' W 080°10'0 0.0
2018-Jun-17 21:28N 26°06' W 080°10'0 0.0
2018-Jun-17 20:49N 26°06' W 080°10'0 0.0
2018-Jun-17 20:23N 26°06' W 080°10'0 0.0
2018-Jun-17 19:53N 26°06' W 080°10'0 0.0
2018-Jun-17 19:22N 26°06' W 080°10'0 0.0
2018-Jun-17 18:52N 26°06' W 080°10'0 0.0
2018-Jun-17 18:22N 26°06' W 080°10'0 0.0
2018-Jun-17 17:52N 26°06' W 080°10'0 0.0
2018-Jun-17 17:26N 26°06' W 080°10'0 0.0
2018-Jun-17 16:55N 26°06' W 080°10'0 0.0
2018-Jun-17 16:25N 26°06' W 080°10'0 0.0
2018-Jun-17 15:56N 26°06' W 080°10'0 0.0
2018-Jun-17 15:25N 26°06' W 080°10'0 0.0
2018-Jun-17 14:55N 26°06' W 080°10'0 0.0
2018-Jun-17 14:25N 26°06' W 080°10'0 0.0
2018-Jun-17 13:55N 26°06' W 080°10'0 0.0
2018-Jun-17 13:28N 26°06' W 080°10'0 0.0
2018-Jun-17 12:58N 26°06' W 080°10'0 0.0
2018-Jun-17 12:28N 26°06' W 080°10'0 0.0
2018-Jun-17 11:58N 26°06' W 080°10'0 0.0
2018-Jun-17 11:28N 26°06' W 080°10'0 0.0
2018-Jun-17 10:58N 26°06' W 080°10'0 0.0
2018-Jun-17 10:28N 26°06' W 080°10'0 0.0
2018-Jun-17 09:58N 26°06' W 080°10'0 0.0
2018-Jun-17 09:28N 26°06' W 080°10'0 0.0
2018-Jun-17 08:58N 26°06' W 080°10'0 0.0
2018-Jun-17 08:28N 26°06' W 080°10'0 0.0
2018-Jun-17 07:58N 26°06' W 080°10'0 0.0
2018-Jun-17 07:28N 26°06' W 080°10'0 0.0
2018-Jun-17 06:58N 26°06' W 080°10'0 0.0
2018-Jun-17 06:19N 26°06' W 080°10'0 0.0
2018-Jun-17 05:49N 26°06' W 080°10'0 0.0
2018-Jun-17 05:19N 26°06' W 080°10'0 0.0
2018-Jun-17 04:52N 26°06' W 080°10'0 0.0
2018-Jun-17 04:22N 26°06' W 080°10'0 0.0
2018-Jun-17 03:52N 26°06' W 080°10'0 0.0
2018-Jun-17 03:22N 26°06' W 080°10'0 0.0
2018-Jun-17 02:52N 26°06' W 080°10'0 0.0
2018-Jun-17 02:22N 26°06' W 080°10'0 0.0
2018-Jun-17 01:52N 26°06' W 080°10'0 0.0
2018-Jun-17 01:22N 26°06' W 080°10'0 0.0
2018-Jun-17 00:55N 26°06' W 080°10'0 0.0
2018-Jun-17 00:25N 26°06' W 080°10'0 0.0
2018-Jun-16 23:55N 26°06' W 080°10'0 0.0
2018-Jun-16 23:25N 26°06' W 080°10'0 0.0
2018-Jun-16 22:55N 26°06' W 080°10'0 0.0
2018-Jun-16 22:25N 26°06' W 080°10'0 0.0
2018-Jun-16 21:58N 26°06' W 080°10'0 0.0
2018-Jun-16 21:28N 26°06' W 080°10'0 0.0
2018-Jun-16 20:58N 26°06' W 080°10'0 0.0
2018-Jun-16 20:28N 26°06' W 080°10'0 0.0
2018-Jun-16 19:55N 26°06' W 080°10'0 0.0
2018-Jun-16 19:28N 26°06' W 080°10'0 0.0
2018-Jun-16 18:58N 26°06' W 080°10'0 0.0
2018-Jun-16 18:28N 26°06' W 080°10'0 0.0
2018-Jun-16 17:58N 26°06' W 080°10'0 0.0
2018-Jun-16 17:28N 26°06' W 080°10'0 0.0
2018-Jun-16 16:58N 26°06' W 080°10'0 0.0
2018-Jun-16 16:19N 26°06' W 080°10'0 0.0
2018-Jun-16 15:58N 26°06' W 080°10'0 0.0
2018-Jun-16 15:19N 26°06' W 080°10'0 0.0
2018-Jun-16 14:52N 26°06' W 080°10'0 0.0
2018-Jun-16 14:19N 26°06' W 080°10'0 0.0
2018-Jun-16 13:49N 26°06' W 080°10'0 0.0
2018-Jun-16 13:19N 26°06' W 080°10'0 0.0
2018-Jun-16 12:52N 26°06' W 080°10'0 0.0
2018-Jun-16 12:22N 26°06' W 080°10'0 0.0
2018-Jun-16 11:55N 26°06' W 080°10'0 0.0
2018-Jun-16 11:22N 26°06' W 080°10'0 0.0
2018-Jun-16 10:55N 26°06' W 080°10'0 0.0
2018-Jun-16 10:22N 26°06' W 080°10'0 0.0
2018-Jun-16 09:52N 26°06' W 080°10'0 0.0
2018-Jun-16 09:25N 26°06' W 080°10'0 0.0
2018-Jun-16 08:55N 26°06' W 080°10'0 0.0
2018-Jun-16 08:25N 26°06' W 080°10'0 0.0
2018-Jun-16 07:58N 26°06' W 080°10'0 0.0
2018-Jun-16 07:28N 26°06' W 080°10'0 0.0
2018-Jun-16 06:58N 26°06' W 080°10'0 0.0
2018-Jun-16 06:28N 26°06' W 080°10'0 0.0
2018-Jun-16 05:58N 26°06' W 080°10'0 0.0
2018-Jun-16 05:28N 26°06' W 080°10'0 0.0
2018-Jun-16 04:58N 26°06' W 080°10'0 0.0
2018-Jun-16 04:28N 26°06' W 080°10'0 0.0
2018-Jun-16 03:46N 26°06' W 080°10'0 0.0
2018-Jun-16 03:28N 26°06' W 080°10'0 0.0
2018-Jun-16 02:58N 26°06' W 080°10'0 0.0
2018-Jun-16 02:28N 26°06' W 080°10'0 0.0
2018-Jun-16 01:58N 26°06' W 080°10'0 0.0
2018-Jun-16 01:19N 26°06' W 080°10'0 0.0
2018-Jun-16 00:58N 26°06' W 080°10'0 0.0
2018-Jun-16 00:19N 26°06' W 080°10'0 0.0
2018-Jun-15 23:58N 26°06' W 080°10'0 0.0
2018-Jun-15 23:22N 26°06' W 080°10'0 0.0
2018-Jun-15 22:37N 26°06' W 080°10'0 0.0
2018-Jun-15 22:22N 26°06' W 080°10'0 0.0
2018-Jun-15 21:52N 26°06' W 080°10'0 0.0
2018-Jun-15 21:19N 26°06' W 080°10'0 0.0
2018-Jun-15 20:49N 26°06' W 080°10'0 0.0
2018-Jun-15 20:22N 26°06' W 080°10'0 0.0
2018-Jun-15 19:55N 26°06' W 080°10'0 0.0
2018-Jun-15 19:22N 26°06' W 080°10'0 0.0
2018-Jun-15 18:55N 26°06' W 080°10'0 0.0
2018-Jun-14 12:26N 26°06' W 080°10'  
Track history (hours):
 
Tides and Currents Weather Stations Pressure Air Temp Water Temp Dewpoint Dewpoint Depression Visibility Wind Speed Wind Dir Waves Ship Positions

Debbie Lou

Owner: Atwater Marine, St Petersburg, FL. More information available from US FCC via Universal Licensing System and Coast Guard Vessel Documentation Center.

Last reported at 2018-Jun-21 23:58 UTC. Time now 2018-Jun-22 00:02 UTC.
Position N 34°43' W 076°40'.

Length 32 m; draft 2 m.

Type: Pleasure craft. MMSI: 367655770.

Date/timePositionNaut miles runAvg speedWind from/ knotsBaromVisibWave heightAir tempDewpointWater temp
2018-Jun-21 23:58N 34°43' W 076°40'0 0.0
2018-Jun-21 23:28N 34°43' W 076°40'0 0.0
2018-Jun-21 22:58N 34°43' W 076°40'0 0.0
2018-Jun-21 22:28N 34°43' W 076°40'0 0.0
2018-Jun-21 21:58N 34°43' W 076°40'0 0.0
2018-Jun-21 21:28N 34°43' W 076°40'0 0.0
2018-Jun-21 20:58N 34°43' W 076°40'0 0.0
2018-Jun-21 20:28N 34°43' W 076°40'0 0.0
2018-Jun-21 19:58N 34°43' W 076°40'0 0.0
2018-Jun-21 19:28N 34°43' W 076°40'0 0.0
2018-Jun-21 18:58N 34°43' W 076°40'0 0.0
2018-Jun-21 18:28N 34°43' W 076°40'0 0.0
2018-Jun-21 17:58N 34°43' W 076°40'0 0.0
2018-Jun-21 17:28N 34°43' W 076°40'0 0.0
2018-Jun-21 16:58N 34°43' W 076°40'0 0.0
2018-Jun-21 16:28N 34°43' W 076°40'0 0.0
2018-Jun-21 15:58N 34°43' W 076°40'0 0.0
2018-Jun-21 15:28N 34°43' W 076°40'0 0.0
2018-Jun-21 14:58N 34°43' W 076°40'0 0.0
2018-Jun-21 14:28N 34°43' W 076°40'0 0.0
2018-Jun-21 13:58N 34°43' W 076°40'0 0.0
2018-Jun-21 13:28N 34°43' W 076°40'0 0.2
2018-Jun-21 12:59N 34°43' W 076°40'0 0.0
2018-Jun-21 12:29N 34°43' W 076°40'0 0.0
2018-Jun-21 11:59N 34°43' W 076°40'0 0.0
2018-Jun-21 11:29N 34°43' W 076°40'0 0.0
2018-Jun-21 10:59N 34°43' W 076°40'0 0.0
2018-Jun-21 10:30N 34°43' W 076°40'1 2.9
2018-Jun-21 10:00N 34°41' W 076°40'510.7
2018-Jun-21 09:30N 34°36' W 076°42'4 7.0
2018-Jun-21 09:00N 34°33' W 076°44'3 6.8
2018-Jun-21 08:30N 34°30' W 076°45'47812.4
2018-Jun-19 17:56N 27°00' W 079°54'615.0
2018-Jun-19 17:30N 26°55' W 079°57'2914.3
2018-Jun-19 15:28N 26°26' W 080°02'613.2
2018-Jun-19 15:00N 26°20' W 080°03'713.4
2018-Jun-19 14:29N 26°13' W 080°04'613.3
2018-Jun-19 14:00N 26°06' W 080°05'3 5.5
2018-Jun-19 13:30N 26°07' W 080°08'2 3.6
2018-Jun-19 13:01N 26°06' W 080°10'0 0.3
2018-Jun-19 12:23N 26°06' W 080°10'0 0.0
2018-Jun-19 11:59N 26°06' W 080°10'0 0.0
2018-Jun-19 11:26N 26°06' W 080°10'0 0.0
2018-Jun-19 10:56N 26°06' W 080°10'0 0.0
2018-Jun-19 10:29N 26°06' W 080°10'0 0.0
2018-Jun-19 09:59N 26°06' W 080°10'0 0.0
2018-Jun-19 09:29N 26°06' W 080°10'0 0.0
2018-Jun-19 08:59N 26°06' W 080°10'0 0.0
2018-Jun-19 08:29N 26°06' W 080°10'0 0.0
2018-Jun-19 07:59N 26°06' W 080°10'0 0.0
2018-Jun-19 07:26N 26°06' W 080°10'0 0.0
2018-Jun-19 06:59N 26°06' W 080°10'0 0.0
2018-Jun-19 06:26N 26°06' W 080°10'0 0.0
2018-Jun-19 05:59N 26°06' W 080°10'0 0.0
2018-Jun-19 05:29N 26°06' W 080°10'0 0.0
2018-Jun-19 04:47N 26°06' W 080°10'0 0.0
2018-Jun-19 04:20N 26°06' W 080°10'0 0.0
2018-Jun-19 03:47N 26°06' W 080°10'0 0.0
2018-Jun-19 03:29N 26°06' W 080°10'0 0.0
2018-Jun-19 02:50N 26°06' W 080°10'0 0.0
2018-Jun-19 02:23N 26°06' W 080°10'0 0.0
2018-Jun-19 01:50N 26°06' W 080°10'0 0.0
2018-Jun-19 01:23N 26°06' W 080°10'0 0.0
2018-Jun-19 00:53N 26°06' W 080°10'0 0.0
2018-Jun-19 00:23N 26°06' W 080°10'0 0.0
2018-Jun-18 23:53N 26°06' W 080°10'0 0.0
2018-Jun-18 23:23N 26°06' W 080°10'0 0.0
2018-Jun-18 22:53N 26°06' W 080°10'0 0.0
2018-Jun-18 22:26N 26°06' W 080°10'0 0.0
2018-Jun-18 21:56N 26°06' W 080°10'0 0.0
2018-Jun-18 21:23N 26°06' W 080°10'0 0.0
2018-Jun-18 20:56N 26°06' W 080°10'0 0.0
2018-Jun-18 20:26N 26°06' W 080°10'0 0.0
2018-Jun-18 19:59N 26°06' W 080°10'0 0.0
2018-Jun-18 19:29N 26°06' W 080°10'0 0.0
2018-Jun-18 18:59N 26°06' W 080°10'0 0.0
2018-Jun-18 18:29N 26°06' W 080°10'0 0.0
2018-Jun-18 17:59N 26°06' W 080°10'0 0.0
2018-Jun-18 17:26N 26°06' W 080°10'0 0.0
2018-Jun-18 16:59N 26°06' W 080°10'0 0.0
2018-Jun-18 16:29N 26°06' W 080°10'0 0.0
2018-Jun-18 15:59N 26°06' W 080°10'0 0.0
2018-Jun-18 15:29N 26°06' W 080°10'0 0.0
2018-Jun-18 14:59N 26°06' W 080°10'0 0.0
2018-Jun-18 14:29N 26°06' W 080°10'0 0.0
2018-Jun-18 13:59N 26°06' W 080°10'0 0.0
2018-Jun-18 13:17N 26°06' W 080°10'0 0.0
2018-Jun-18 12:59N 26°06' W 080°10'0 0.0
2018-Jun-18 12:29N 26°06' W 080°10'0 0.0
2018-Jun-18 11:50N 26°06' W 080°10'0 0.0
2018-Jun-18 11:20N 26°06' W 080°10'0 0.0
2018-Jun-18 10:53N 26°06' W 080°10'0 0.0
2018-Jun-18 10:23N 26°06' W 080°10'0 0.0
2018-Jun-18 09:53N 26°06' W 080°10'0 0.0
2018-Jun-18 09:23N 26°06' W 080°10'0 0.0
2018-Jun-18 08:52N 26°06' W 080°10'0 0.0
2018-Jun-18 08:26N 26°06' W 080°10'0 0.0
2018-Jun-18 07:53N 26°06' W 080°10'0 0.0
2018-Jun-18 07:26N 26°06' W 080°10'0 0.0
2018-Jun-18 06:56N 26°06' W 080°10'0 0.0
2018-Jun-18 06:26N 26°06' W 080°10'0 0.0
2018-Jun-18 05:56N 26°06' W 080°10'0 0.0
2018-Jun-18 05:26N 26°06' W 080°10'0 0.0
2018-Jun-18 04:59N 26°06' W 080°10'0 0.0
2018-Jun-18 04:29N 26°06' W 080°10'0 0.0
2018-Jun-18 03:59N 26°06' W 080°10'0 0.0
2018-Jun-18 03:28N 26°06' W 080°10'0 0.0
2018-Jun-18 02:58N 26°06' W 080°10'0 0.0
2018-Jun-18 02:29N 26°06' W 080°10'0 0.0
2018-Jun-18 01:58N 26°06' W 080°10'0 0.0
2018-Jun-18 01:28N 26°06' W 080°10'0 0.0
2018-Jun-18 00:59N 26°06' W 080°10'0 0.0
2018-Jun-18 00:29N 26°06' W 080°10'0 0.0
2018-Jun-17 23:58N 26°06' W 080°10'0 0.0
2018-Jun-17 23:29N 26°06' W 080°10'0 0.0
2018-Jun-17 22:58N 26°06' W 080°10'0 0.0
2018-Jun-17 22:28N 26°06' W 080°10'0 0.0
2018-Jun-17 21:58N 26°06' W 080°10'0 0.0
2018-Jun-17 21:28N 26°06' W 080°10'0 0.0
2018-Jun-17 20:49N 26°06' W 080°10'0 0.0
2018-Jun-17 20:23N 26°06' W 080°10'0 0.0
2018-Jun-17 19:53N 26°06' W 080°10'0 0.0
2018-Jun-17 19:22N 26°06' W 080°10'0 0.0
2018-Jun-17 18:52N 26°06' W 080°10'0 0.0
2018-Jun-17 18:22N 26°06' W 080°10'0 0.0
2018-Jun-17 17:52N 26°06' W 080°10'0 0.0
2018-Jun-17 17:26N 26°06' W 080°10'0 0.0
2018-Jun-17 16:55N 26°06' W 080°10'0 0.0
2018-Jun-17 16:25N 26°06' W 080°10'0 0.0
2018-Jun-17 15:56N 26°06' W 080°10'0 0.0
2018-Jun-17 15:25N 26°06' W 080°10'0 0.0
2018-Jun-17 14:55N 26°06' W 080°10'0 0.0
2018-Jun-17 14:25N 26°06' W 080°10'0 0.0
2018-Jun-17 13:55N 26°06' W 080°10'0 0.0
2018-Jun-17 13:28N 26°06' W 080°10'0 0.0
2018-Jun-17 12:58N 26°06' W 080°10'0 0.0
2018-Jun-17 12:28N 26°06' W 080°10'0 0.0
2018-Jun-17 11:58N 26°06' W 080°10'0 0.0
2018-Jun-17 11:28N 26°06' W 080°10'0 0.0
2018-Jun-17 10:58N 26°06' W 080°10'0 0.0
2018-Jun-17 10:28N 26°06' W 080°10'0 0.0
2018-Jun-17 09:58N 26°06' W 080°10'0 0.0
2018-Jun-17 09:28N 26°06' W 080°10'0 0.0
2018-Jun-17 08:58N 26°06' W 080°10'0 0.0
2018-Jun-17 08:28N 26°06' W 080°10'0 0.0
2018-Jun-17 07:58N 26°06' W 080°10'0 0.0
2018-Jun-17 07:28N 26°06' W 080°10'0 0.0
2018-Jun-17 06:58N 26°06' W 080°10'0 0.0
2018-Jun-17 06:19N 26°06' W 080°10'0 0.0
2018-Jun-17 05:49N 26°06' W 080°10'0 0.0
2018-Jun-17 05:19N 26°06' W 080°10'0 0.0
2018-Jun-17 04:52N 26°06' W 080°10'0 0.0
2018-Jun-17 04:22N 26°06' W 080°10'0 0.0
2018-Jun-17 03:52N 26°06' W 080°10'0 0.0
2018-Jun-17 03:22N 26°06' W 080°10'0 0.0
2018-Jun-17 02:52N 26°06' W 080°10'0 0.0
2018-Jun-17 02:22N 26°06' W 080°10'0 0.0
2018-Jun-17 01:52N 26°06' W 080°10'0 0.0
2018-Jun-17 01:22N 26°06' W 080°10'0 0.0
2018-Jun-17 00:55N 26°06' W 080°10'0 0.0
2018-Jun-17 00:25N 26°06' W 080°10'0 0.0
2018-Jun-16 23:55N 26°06' W 080°10'0 0.0
2018-Jun-16 23:25N 26°06' W 080°10'0 0.0
2018-Jun-16 22:55N 26°06' W 080°10'0 0.0
2018-Jun-16 22:25N 26°06' W 080°10'0 0.0
2018-Jun-16 21:58N 26°06' W 080°10'0 0.0
2018-Jun-16 21:28N 26°06' W 080°10'0 0.0
2018-Jun-16 20:58N 26°06' W 080°10'0 0.0
2018-Jun-16 20:28N 26°06' W 080°10'0 0.0
2018-Jun-16 19:55N 26°06' W 080°10'0 0.0
2018-Jun-16 19:28N 26°06' W 080°10'0 0.0
2018-Jun-16 18:58N 26°06' W 080°10'0 0.0
2018-Jun-16 18:28N 26°06' W 080°10'0 0.0
2018-Jun-16 17:58N 26°06' W 080°10'0 0.0
2018-Jun-16 17:28N 26°06' W 080°10'0 0.0
2018-Jun-16 16:58N 26°06' W 080°10'0 0.0
2018-Jun-16 16:19N 26°06' W 080°10'0 0.0
2018-Jun-16 15:58N 26°06' W 080°10'0 0.0
2018-Jun-16 15:19N 26°06' W 080°10'0 0.0
2018-Jun-16 14:52N 26°06' W 080°10'0 0.0
2018-Jun-16 14:19N 26°06' W 080°10'0 0.0
2018-Jun-16 13:49N 26°06' W 080°10'0 0.0
2018-Jun-16 13:19N 26°06' W 080°10'0 0.0
2018-Jun-16 12:52N 26°06' W 080°10'0 0.0
2018-Jun-16 12:22N 26°06' W 080°10'0 0.0
2018-Jun-16 11:55N 26°06' W 080°10'0 0.0
2018-Jun-16 11:22N 26°06' W 080°10'0 0.0
2018-Jun-16 10:55N 26°06' W 080°10'0 0.0
2018-Jun-16 10:22N 26°06' W 080°10'0 0.0
2018-Jun-16 09:52N 26°06' W 080°10'0 0.0
2018-Jun-16 09:25N 26°06' W 080°10'0 0.0
2018-Jun-16 08:55N 26°06' W 080°10'0 0.0
2018-Jun-16 08:25N 26°06' W 080°10'0 0.0
2018-Jun-16 07:58N 26°06' W 080°10'0 0.0
2018-Jun-16 07:28N 26°06' W 080°10'0 0.0
2018-Jun-16 06:58N 26°06' W 080°10'0 0.0
2018-Jun-16 06:28N 26°06' W 080°10'0 0.0
2018-Jun-16 05:58N 26°06' W 080°10'0 0.0
2018-Jun-16 05:28N 26°06' W 080°10'0 0.0
2018-Jun-16 04:58N 26°06' W 080°10'0 0.0
2018-Jun-16 04:28N 26°06' W 080°10'0 0.0
2018-Jun-16 03:46N 26°06' W 080°10'0 0.0
2018-Jun-16 03:28N 26°06' W 080°10'0 0.0
2018-Jun-16 02:58N 26°06' W 080°10'0 0.0
2018-Jun-16 02:28N 26°06' W 080°10'0 0.0
2018-Jun-16 01:58N 26°06' W 080°10'0 0.0
2018-Jun-16 01:19N 26°06' W 080°10'0 0.0
2018-Jun-16 00:58N 26°06' W 080°10'0 0.0
2018-Jun-16 00:19N 26°06' W 080°10'0 0.0
2018-Jun-15 23:58N 26°06' W 080°10'0 0.0
2018-Jun-15 23:22N 26°06' W 080°10'0 0.0
2018-Jun-15 22:37N 26°06' W 080°10'0 0.0
2018-Jun-15 22:22N 26°06' W 080°10'0 0.0
2018-Jun-15 21:52N 26°06' W 080°10'0 0.0
2018-Jun-15 21:19N 26°06' W 080°10'0 0.0
2018-Jun-15 20:49N 26°06' W 080°10'0 0.0
2018-Jun-15 20:22N 26°06' W 080°10'0 0.0
2018-Jun-15 19:55N 26°06' W 080°10'0 0.0
2018-Jun-15 19:22N 26°06' W 080°10'0 0.0
2018-Jun-15 18:55N 26°06' W 080°10'0 0.0
2018-Jun-14 12:26N 26°06' W 080°10'  

Dump ship's entire track history